createdAt,value
2022-10-14T00:01:51.436Z,10.70
2022-10-14T00:04:19.620Z,13.05
2022-10-14T00:06:47.891Z,11.07
2022-10-14T00:09:18.286Z,11.13
2022-10-14T00:11:46.353Z,10.00
2022-10-14T00:14:16.658Z,10.32
2022-10-14T00:16:48.252Z,10.05
2022-10-14T00:19:17.169Z,10.07
2022-10-14T00:21:47.022Z,9.25
2022-10-14T00:24:16.387Z,10.07
2022-10-14T00:26:44.786Z,9.93
2022-10-14T00:29:18.097Z,8.52
2022-10-14T00:31:47.147Z,9.18
2022-10-14T00:34:17.539Z,8.68
2022-10-14T00:36:45.542Z,8.45
2022-10-14T00:39:19.614Z,8.50
2022-10-14T00:41:47.559Z,8.60
2022-10-14T00:44:16.296Z,9.23
2022-10-14T00:46:45.763Z,9.20
2022-10-14T00:49:17.027Z,8.75
2022-10-14T00:51:51.718Z,7.90
2022-10-14T00:54:21.938Z,8.18
2022-10-14T00:56:51.342Z,8.35
2022-10-14T00:59:19.590Z,8.23
2022-10-14T01:01:47.505Z,8.68
2022-10-14T01:04:15.533Z,8.25
2022-10-14T01:07:09.320Z,8.25
2022-10-14T01:09:43.776Z,8.50
2022-10-14T01:12:32.625Z,8.10
2022-10-14T01:15:28.930Z,7.07
2022-10-14T01:18:31.146Z,8.05
2022-10-14T01:21:02.717Z,7.43
2022-10-14T01:23:44.093Z,7.28
2022-10-14T01:26:15.546Z,6.93
2022-10-14T01:29:01.855Z,7.15
2022-10-14T01:31:32.723Z,7.40
2022-10-14T01:34:03.497Z,7.20
2022-10-14T01:36:37.942Z,6.93
2022-10-14T01:39:11.763Z,7.65
2022-10-14T01:41:42.052Z,6.65
2022-10-14T01:44:11.344Z,7.20
2022-10-14T01:46:42.406Z,6.82
2022-10-14T01:49:16.407Z,6.80
2022-10-14T01:51:48.157Z,7.75
2022-10-14T01:54:22.910Z,6.88
2022-10-14T01:56:50.891Z,7.03
2022-10-14T01:59:19.397Z,7.22
2022-10-14T02:01:47.792Z,7.47
2022-10-14T02:04:18.251Z,7.35
2022-10-14T02:06:54.947Z,6.70
2022-10-14T02:09:52.122Z,7.18
2022-10-14T02:12:38.889Z,6.95
2022-10-14T02:15:21.569Z,6.88
2022-10-14T02:17:55.955Z,6.97
2022-10-14T02:20:31.418Z,7.47
2022-10-14T02:23:07.031Z,8.27
2022-10-14T02:25:37.525Z,7.30
2022-10-14T02:28:08.173Z,7.03
2022-10-14T02:30:41.246Z,7.32
2022-10-14T02:33:10.724Z,6.93
2022-10-14T02:35:41.513Z,7.43
2022-10-14T02:38:09.440Z,7.63
2022-10-14T02:40:45.451Z,7.13
2022-10-14T02:43:13.655Z,7.22
2022-10-14T02:45:42.782Z,7.90
2022-10-14T02:48:11.585Z,7.35
2022-10-14T02:50:40.102Z,8.50
2022-10-14T02:53:09.358Z,7.93
2022-10-14T02:55:37.364Z,7.25
2022-10-14T02:58:08.575Z,7.50
2022-10-14T03:00:37.167Z,7.53
2022-10-14T03:03:05.446Z,6.72
2022-10-14T03:05:33.441Z,7.35
2022-10-14T03:08:06.518Z,6.47
2022-10-14T03:10:35.465Z,6.22
2022-10-14T03:13:04.190Z,7.38
2022-10-14T03:15:41.451Z,7.20
2022-10-14T03:18:11.551Z,6.95
2022-10-14T03:20:45.812Z,6.85
2022-10-14T03:23:19.471Z,6.50
2022-10-14T03:25:55.734Z,7.43
2022-10-14T03:28:29.471Z,7.22
2022-10-14T03:31:17.712Z,6.32
2022-10-14T03:34:09.210Z,6.45
2022-10-14T03:36:40.569Z,6.75
2022-10-14T03:39:12.595Z,7.00
2022-10-14T03:41:50.465Z,6.68
2022-10-14T03:44:29.679Z,7.18
2022-10-14T03:47:21.693Z,7.32
2022-10-14T03:49:56.520Z,6.35
2022-10-14T03:53:03.170Z,6.68
2022-10-14T03:55:42.338Z,8.82
2022-10-14T03:58:11.979Z,7.00
2022-10-14T04:00:55.073Z,5.95
2022-10-14T04:03:55.395Z,6.43
2022-10-14T04:06:25.694Z,6.78
2022-10-14T04:08:57.953Z,7.00
2022-10-14T04:11:31.796Z,7.18
2022-10-14T04:14:05.559Z,7.47
2022-10-14T04:16:46.071Z,6.63
2022-10-14T04:19:18.896Z,7.22
2022-10-14T04:21:46.954Z,7.03
2022-10-14T04:24:17.315Z,7.35
2022-10-14T04:29:35.582Z,6.88
2022-10-14T04:32:09.822Z,7.40
2022-10-14T04:34:38.621Z,6.90
2022-10-14T04:37:10.005Z,6.90
2022-10-14T04:39:50.149Z,6.60
2022-10-14T04:42:18.880Z,6.82
2022-10-14T04:44:51.688Z,7.00
2022-10-14T04:47:27.261Z,7.28
2022-10-14T04:50:00.563Z,7.10
2022-10-14T04:52:35.545Z,7.10
2022-10-14T04:55:09.928Z,6.05
2022-10-14T04:57:45.687Z,6.53
2022-10-14T05:00:16.682Z,6.50
2022-10-14T05:02:45.282Z,6.63
2022-10-14T05:05:17.633Z,6.20
2022-10-14T05:07:50.342Z,6.60
2022-10-14T05:10:42.943Z,6.97
2022-10-14T05:13:20.812Z,9.05
2022-10-14T05:16:03.126Z,6.88
2022-10-14T05:18:35.852Z,6.68
2022-10-14T05:21:13.006Z,6.97
2022-10-14T05:24:05.367Z,7.30
2022-10-14T05:26:46.630Z,6.93
2022-10-14T05:29:15.715Z,6.82
2022-10-14T05:31:44.304Z,7.35
2022-10-14T05:34:31.373Z,7.10
2022-10-14T05:37:00.202Z,6.47
2022-10-14T05:39:33.174Z,7.43
2022-10-14T05:42:04.269Z,7.35
2022-10-14T05:44:33.107Z,6.65
2022-10-14T05:47:00.975Z,7.00
2022-10-14T05:49:30.276Z,7.30
2022-10-14T05:52:00.486Z,6.95
2022-10-14T05:54:29.716Z,7.85
2022-10-14T05:56:59.641Z,6.65
2022-10-14T05:59:30.046Z,8.32
2022-10-14T06:01:59.508Z,7.18
2022-10-14T06:04:27.948Z,6.63
2022-10-14T06:06:59.160Z,7.25
2022-10-14T06:09:27.336Z,6.05
2022-10-14T06:12:04.424Z,6.05
2022-10-14T06:14:37.280Z,7.22
2022-10-14T06:17:08.783Z,5.35
2022-10-14T06:19:40.703Z,5.25
2022-10-14T06:22:08.689Z,4.95
2022-10-14T06:24:37.685Z,5.85
2022-10-14T06:27:10.579Z,5.55
2022-10-14T06:29:38.730Z,5.57
2022-10-14T06:32:07.430Z,5.40
2022-10-14T06:34:36.115Z,6.00
2022-10-14T06:37:07.040Z,6.38
2022-10-14T06:39:36.055Z,5.38
2022-10-14T06:42:13.175Z,5.53
2022-10-14T06:44:41.653Z,5.78
2022-10-14T06:47:10.935Z,5.28
2022-10-14T06:49:39.155Z,5.15
2022-10-14T06:52:07.288Z,5.45
2022-10-14T06:54:39.455Z,7.25
2022-10-14T06:57:08.671Z,5.15
2022-10-14T06:59:39.166Z,5.28
2022-10-14T07:02:07.271Z,5.32
2022-10-14T07:04:38.408Z,6.05
2022-10-14T07:07:16.247Z,5.68
2022-10-14T07:09:44.848Z,6.10
2022-10-14T07:12:14.584Z,7.32
2022-10-14T07:14:43.434Z,6.45
2022-10-14T07:17:13.326Z,6.13
2022-10-14T07:19:43.292Z,5.70
2022-10-14T07:22:11.245Z,5.72
2022-10-14T07:24:42.577Z,5.80
2022-10-14T07:27:16.292Z,7.18
2022-10-14T07:29:54.081Z,7.60
2022-10-14T07:32:27.971Z,6.80
2022-10-14T07:34:55.759Z,5.57
2022-10-14T07:37:24.115Z,6.43
2022-10-14T07:39:53.351Z,6.15
2022-10-14T07:42:21.629Z,6.13
2022-10-14T07:44:50.531Z,6.68
2022-10-14T07:47:19.415Z,6.25
2022-10-14T07:49:48.295Z,6.75
2022-10-14T07:52:19.747Z,6.80
2022-10-14T07:54:48.307Z,6.50
2022-10-14T07:57:16.935Z,6.55
2022-10-14T07:59:46.427Z,6.60
2022-10-14T08:02:14.889Z,6.57
2022-10-14T08:04:44.976Z,6.50
2022-10-14T08:07:15.328Z,6.32
2022-10-14T08:09:44.855Z,6.60
2022-10-14T08:12:55.039Z,7.10
2022-10-14T08:21:13.449Z,6.60
2022-10-14T08:23:46.335Z,6.25
2022-10-14T08:26:23.644Z,6.57
2022-10-14T08:29:06.749Z,6.30
2022-10-14T08:31:39.426Z,6.53
2022-10-14T08:34:28.837Z,6.75
2022-10-14T08:37:06.636Z,6.65
2022-10-14T08:39:36.307Z,7.05
2022-10-14T08:42:07.200Z,6.82
2022-10-14T08:44:36.001Z,6.30
2022-10-14T08:47:04.983Z,6.15
2022-10-14T08:50:02.172Z,6.10
2022-10-14T08:52:41.472Z,6.32
2022-10-14T08:55:25.055Z,6.35
2022-10-14T08:58:17.682Z,5.97
2022-10-14T09:00:47.771Z,6.45
2022-10-14T09:03:21.763Z,7.63
2022-10-14T09:05:58.279Z,6.13
2022-10-14T09:08:36.203Z,6.72
2022-10-14T09:11:06.716Z,5.38
2022-10-14T09:13:40.025Z,5.72
2022-10-14T09:16:15.380Z,6.50
2022-10-14T09:18:54.765Z,5.60
2022-10-14T09:21:53.235Z,5.97
2022-10-14T09:24:36.134Z,5.13
2022-10-14T09:27:08.168Z,6.65
2022-10-14T09:29:43.793Z,5.88
2022-10-14T09:32:30.114Z,5.85
2022-10-14T09:37:35.267Z,5.43
2022-10-14T09:40:15.011Z,5.85
2022-10-14T09:43:10.412Z,6.25
2022-10-14T09:45:50.599Z,5.95
2022-10-14T09:48:28.815Z,6.15
2022-10-14T09:50:59.137Z,5.10
2022-10-14T09:53:37.246Z,5.85
2022-10-14T09:56:07.443Z,6.72
2022-10-14T09:58:53.681Z,5.57
2022-10-14T10:01:23.523Z,5.50
2022-10-14T10:03:55.707Z,6.65
2022-10-14T10:06:27.511Z,5.28
2022-10-14T10:08:58.679Z,6.38
2022-10-14T10:11:39.342Z,6.28
2022-10-14T10:14:29.821Z,5.57
2022-10-14T10:17:10.517Z,7.28
2022-10-14T10:19:51.742Z,6.13
2022-10-14T10:22:26.828Z,6.63
2022-10-14T10:25:04.020Z,5.47
2022-10-14T10:27:36.863Z,6.10
2022-10-14T10:30:24.953Z,6.40
2022-10-14T10:33:03.701Z,6.47
2022-10-14T10:35:58.086Z,5.75
2022-10-14T10:38:37.167Z,6.18
2022-10-14T10:41:22.783Z,6.05
2022-10-14T10:44:31.597Z,4.95
2022-10-14T10:47:11.907Z,6.05
2022-10-14T10:50:17.917Z,6.10
2022-10-14T10:53:27.474Z,5.90
2022-10-14T10:56:18.871Z,6.47
2022-10-14T10:59:03.341Z,6.03
2022-10-14T11:01:59.860Z,5.80
2022-10-14T11:04:36.482Z,5.65
2022-10-14T11:07:27.171Z,6.18
2022-10-14T11:10:41.379Z,6.13
2022-10-14T11:13:30.818Z,5.82
2022-10-14T11:16:10.189Z,5.57
2022-10-14T11:18:49.920Z,5.40
2022-10-14T11:21:28.073Z,5.32
2022-10-14T11:24:00.768Z,5.22
2022-10-14T11:27:00.492Z,4.88
2022-10-14T11:29:46.980Z,5.07
2022-10-14T11:32:21.912Z,4.72
2022-10-14T11:34:58.861Z,5.43
2022-10-14T11:37:41.910Z,4.85
2022-10-14T11:40:30.634Z,5.55
2022-10-14T11:43:02.332Z,6.10
2022-10-14T11:45:46.995Z,10.43
2022-10-14T11:48:27.165Z,6.93
2022-10-14T11:51:03.888Z,6.53
2022-10-14T11:56:15.001Z,7.55
2022-10-14T11:58:44.316Z,6.40
2022-10-14T12:01:15.277Z,8.23
2022-10-14T12:03:48.798Z,8.07
2022-10-14T12:06:30.978Z,7.85
2022-10-14T12:09:28.013Z,6.82
2022-10-14T12:14:50.625Z,6.88
2022-10-14T12:17:47.091Z,5.60
2022-10-14T12:20:34.724Z,5.13
2022-10-14T12:24:44.844Z,5.65
2022-10-14T12:27:24.744Z,6.43
2022-10-14T12:30:03.123Z,6.38
2022-10-14T12:33:03.413Z,5.45
2022-10-14T12:35:46.555Z,6.47
2022-10-14T12:40:50.843Z,5.75
2022-10-14T12:43:26.553Z,5.93
2022-10-14T12:46:31.722Z,6.32
2022-10-14T12:49:20.010Z,5.40
2022-10-14T12:51:59.028Z,4.03
2022-10-14T12:55:09.811Z,4.47
2022-10-14T12:57:42.353Z,4.72
2022-10-14T13:00:23.200Z,4.10
2022-10-14T13:03:38.144Z,9.13
2022-10-14T13:06:27.233Z,3.92
2022-10-14T13:09:36.037Z,4.40
2022-10-14T13:12:32.641Z,4.15
2022-10-14T13:16:07.955Z,4.68
2022-10-14T13:19:38.127Z,3.60
2022-10-14T13:27:41.335Z,3.38
2022-10-14T13:30:56.444Z,3.38
2022-10-14T13:33:34.979Z,3.70
2022-10-14T13:36:16.739Z,4.47
2022-10-14T13:38:48.088Z,6.20
2022-10-14T13:41:18.927Z,3.75
2022-10-14T13:43:47.015Z,3.80
2022-10-14T13:46:36.809Z,4.03
2022-10-14T13:49:17.232Z,4.50
2022-10-14T13:51:48.573Z,4.00
2022-10-14T13:54:19.403Z,4.10
2022-10-14T13:57:48.213Z,4.50
2022-10-14T14:00:39.752Z,5.28
2022-10-14T14:02:56.716Z,4.75
2022-10-14T14:05:26.918Z,4.30
2022-10-14T14:11:18.225Z,4.88
2022-10-14T14:14:10.887Z,3.92
2022-10-14T14:19:26.758Z,4.00
2022-10-14T14:22:24.450Z,4.05
2022-10-14T14:24:53.105Z,3.38
2022-10-14T14:27:23.879Z,4.78
2022-10-14T14:29:53.080Z,4.55
2022-10-14T14:32:28.810Z,4.47
2022-10-14T14:34:56.695Z,5.28
2022-10-14T14:37:53.380Z,7.85
2022-10-14T14:40:29.146Z,9.48
2022-10-14T14:43:02.408Z,8.10
2022-10-14T14:45:44.156Z,9.02
2022-10-14T14:48:12.049Z,7.65
2022-10-14T14:50:43.250Z,10.45
2022-10-14T14:53:12.616Z,10.88
2022-10-14T14:55:46.954Z,10.52
2022-10-14T14:58:36.034Z,12.23
2022-10-14T15:01:06.721Z,12.05
2022-10-14T15:04:11.893Z,11.90
2022-10-14T15:06:39.819Z,10.57
2022-10-14T15:09:52.759Z,11.55
2022-10-14T15:12:27.028Z,10.75
2022-10-14T15:14:58.589Z,9.80
2022-10-14T15:17:40.328Z,8.68
2022-10-14T15:20:11.429Z,12.07
2022-10-14T15:22:43.754Z,15.70
2022-10-14T15:25:17.642Z,18.75
2022-10-14T15:27:53.764Z,26.63
2022-10-14T15:30:33.108Z,22.63
2022-10-14T15:33:19.295Z,22.95
2022-10-14T15:36:01.819Z,23.45
2022-10-14T15:38:33.148Z,25.13
2022-10-14T15:41:01.269Z,25.20
2022-10-14T15:43:29.228Z,24.42
2022-10-14T15:46:17.587Z,26.17
2022-10-14T15:48:55.074Z,24.65
2022-10-14T15:51:26.583Z,25.30
2022-10-14T15:53:54.443Z,26.85
2022-10-14T15:56:23.744Z,26.77
2022-10-14T15:58:57.589Z,25.90
2022-10-14T16:01:25.871Z,25.75
2022-10-14T16:03:55.249Z,26.45
2022-10-14T16:06:24.695Z,25.42
2022-10-14T16:08:52.959Z,26.23
2022-10-14T16:11:28.597Z,25.65
2022-10-14T16:14:31.054Z,26.35
2022-10-14T16:17:03.633Z,27.05
2022-10-14T16:19:33.771Z,25.65
2022-10-14T16:22:07.345Z,28.30
2022-10-14T16:24:39.697Z,27.75
2022-10-14T16:27:07.751Z,28.02
2022-10-14T16:29:37.507Z,29.73
2022-10-14T16:32:06.468Z,29.40
2022-10-14T16:34:34.915Z,30.20
2022-10-14T16:37:04.707Z,28.10
2022-10-14T16:39:32.931Z,29.70
2022-10-14T16:42:01.143Z,26.05
2022-10-14T16:44:31.514Z,27.08
2022-10-14T16:47:17.713Z,26.05
2022-10-14T16:49:49.333Z,26.27
2022-10-14T16:52:21.930Z,25.63
2022-10-14T16:54:50.502Z,26.20
2022-10-14T16:57:21.775Z,26.10
2022-10-14T16:59:56.580Z,25.65
2022-10-14T17:02:32.036Z,26.23
2022-10-14T17:05:01.646Z,24.75
2022-10-14T17:07:30.613Z,47.70
2022-10-14T17:09:58.635Z,27.58
2022-10-14T17:12:27.438Z,28.17
2022-10-14T17:14:55.656Z,28.90
2022-10-14T17:17:29.886Z,22.60
2022-10-14T17:20:37.934Z,28.52
2022-10-14T17:23:10.436Z,23.55
2022-10-14T17:25:49.374Z,24.48
2022-10-14T17:29:00.460Z,24.65
2022-10-14T17:32:06.284Z,26.00
2022-10-14T17:34:43.396Z,30.50
2022-10-14T17:37:21.059Z,32.28
2022-10-14T17:39:50.876Z,27.15
2022-10-14T17:42:20.282Z,28.25
2022-10-14T17:44:53.147Z,25.00
2022-10-14T17:47:24.759Z,24.95
2022-10-14T17:49:53.017Z,26.48
2022-10-14T17:52:20.964Z,27.38
2022-10-14T17:54:49.737Z,27.50
2022-10-14T17:57:17.751Z,25.70
2022-10-14T17:59:45.629Z,27.70
2022-10-14T18:02:17.457Z,24.90
2022-10-14T18:04:48.365Z,24.15
2022-10-14T18:07:16.568Z,23.80
2022-10-14T18:09:44.439Z,25.25
2022-10-14T18:12:38.103Z,24.65
2022-10-14T18:15:09.702Z,25.70
2022-10-14T18:17:39.743Z,20.92
2022-10-14T18:20:08.323Z,19.25
2022-10-14T18:22:37.580Z,18.30
2022-10-14T18:25:07.884Z,13.75
2022-10-14T18:27:35.927Z,16.13
2022-10-14T18:30:04.159Z,13.52
2022-10-14T18:32:32.818Z,15.25
2022-10-14T18:35:00.711Z,12.45
2022-10-14T18:37:34.997Z,12.23
2022-10-14T18:40:06.242Z,10.95
2022-10-14T18:42:34.571Z,12.27
2022-10-14T18:45:02.537Z,11.10
2022-10-14T18:47:30.753Z,11.05
2022-10-14T18:49:59.796Z,11.40
2022-10-14T18:52:33.504Z,11.10
2022-10-14T18:55:15.099Z,12.27
2022-10-14T18:57:43.221Z,12.00
2022-10-14T19:00:14.325Z,12.40
2022-10-14T19:02:43.752Z,12.07
2022-10-14T19:05:12.667Z,11.57
2022-10-14T19:07:41.479Z,11.82
2022-10-14T19:10:10.541Z,12.50
2022-10-14T19:12:42.828Z,12.88
2022-10-14T19:15:18.953Z,12.05
2022-10-14T19:17:52.251Z,12.68
2022-10-14T19:20:23.282Z,11.88
2022-10-14T19:22:56.413Z,12.50
2022-10-14T19:25:25.801Z,11.80
2022-10-14T19:27:55.940Z,11.60
2022-10-14T19:30:24.175Z,11.90
2022-10-14T19:32:53.231Z,10.85
2022-10-14T19:35:21.940Z,11.27
2022-10-14T19:37:50.163Z,11.13
2022-10-14T19:40:19.917Z,12.65
2022-10-14T19:42:51.748Z,13.35
2022-10-14T19:45:20.771Z,13.10
2022-10-14T19:47:55.687Z,13.43
2022-10-14T19:50:23.708Z,13.85
2022-10-14T19:52:51.830Z,13.20
2022-10-14T19:55:21.980Z,11.93
2022-10-14T19:57:50.164Z,12.75
2022-10-14T20:00:19.935Z,12.77
2022-10-14T20:02:49.146Z,11.75
2022-10-14T20:05:17.639Z,12.70
2022-10-14T20:07:46.813Z,12.25
2022-10-14T20:10:25.935Z,11.85
2022-10-14T20:12:54.183Z,11.77
2022-10-14T20:15:24.475Z,10.45
2022-10-14T20:17:57.271Z,10.60
2022-10-14T20:20:26.037Z,10.10
2022-10-14T20:22:53.986Z,10.32
2022-10-14T20:25:21.853Z,9.95
2022-10-14T20:27:51.967Z,8.65
2022-10-14T20:30:21.454Z,6.93
2022-10-14T20:32:49.260Z,7.43
2022-10-14T20:35:24.774Z,6.57
2022-10-14T20:37:53.881Z,7.05
2022-10-14T20:40:22.042Z,9.13
2022-10-14T20:42:50.387Z,8.32
2022-10-14T20:45:21.223Z,7.57
2022-10-14T20:47:53.371Z,13.10
2022-10-14T20:50:28.394Z,12.40
2022-10-14T20:53:04.416Z,12.00
2022-10-14T20:55:34.782Z,8.93
2022-10-14T20:58:03.036Z,8.20
2022-10-14T21:00:33.727Z,7.78
2022-10-14T21:03:01.880Z,5.95
2022-10-14T21:05:29.911Z,7.10
2022-10-14T21:07:58.681Z,6.90
2022-10-14T21:10:27.835Z,7.10
2022-10-14T21:12:55.721Z,7.32
2022-10-14T21:15:27.056Z,7.15
2022-10-14T21:17:55.237Z,7.85
2022-10-14T21:20:24.914Z,7.32
2022-10-14T21:23:01.808Z,7.18
2022-10-14T21:25:29.820Z,7.78
2022-10-14T21:27:58.101Z,7.97
2022-10-14T21:30:26.954Z,8.68
2022-10-14T21:32:55.051Z,7.75
2022-10-14T21:35:23.100Z,8.40
2022-10-14T21:37:54.707Z,8.73
2022-10-14T21:40:22.961Z,8.50
2022-10-14T21:42:50.933Z,9.52
2022-10-14T21:45:18.939Z,10.05
2022-10-14T21:47:46.850Z,11.25
2022-10-14T21:50:15.906Z,10.95
2022-10-14T21:52:44.047Z,10.85
2022-10-14T21:55:14.800Z,10.65
2022-10-14T21:57:43.491Z,10.73
2022-10-14T22:00:12.403Z,9.77
2022-10-14T22:02:40.268Z,9.10
2022-10-14T22:05:10.871Z,9.73
2022-10-14T22:07:39.125Z,8.30
2022-10-14T22:10:38.304Z,8.18
2022-10-14T22:13:13.795Z,8.15
2022-10-14T22:15:44.821Z,7.10
2022-10-14T22:18:12.637Z,7.55
2022-10-14T22:20:40.628Z,8.07
2022-10-14T22:23:08.704Z,7.82
2022-10-14T22:25:38.949Z,7.22
2022-10-14T22:28:06.909Z,8.15
2022-10-14T22:30:35.823Z,7.40
2022-10-14T22:33:04.061Z,7.43
2022-10-14T22:35:32.027Z,7.95
2022-10-14T22:38:00.843Z,7.50
2022-10-14T22:40:29.768Z,7.30
2022-10-14T22:42:58.125Z,8.10
2022-10-14T22:45:26.476Z,7.78
2022-10-14T22:47:54.416Z,7.80
2022-10-14T22:50:22.354Z,8.35
2022-10-14T22:52:50.359Z,8.07
2022-10-14T22:55:18.893Z,8.52
2022-10-14T22:57:47.139Z,10.50
2022-10-14T23:00:15.721Z,10.85
2022-10-14T23:02:43.695Z,11.38
2022-10-14T23:05:11.909Z,12.07
2022-10-14T23:07:40.386Z,12.10
2022-10-14T23:10:15.269Z,12.82
2022-10-14T23:12:44.697Z,12.60
2022-10-14T23:15:12.949Z,14.40
2022-10-14T23:17:42.819Z,13.18
2022-10-14T23:20:15.057Z,13.45
2022-10-14T23:22:46.364Z,11.93
2022-10-14T23:25:14.366Z,12.02
2022-10-14T23:27:42.348Z,13.27
2022-10-14T23:30:11.227Z,14.55
2022-10-14T23:32:39.261Z,15.27
2022-10-14T23:35:07.837Z,15.70
2022-10-14T23:37:36.420Z,16.15
2022-10-14T23:40:05.869Z,17.40
2022-10-14T23:42:35.001Z,17.85
2022-10-14T23:45:04.580Z,18.67
2022-10-14T23:47:33.413Z,18.23
2022-10-14T23:50:01.382Z,16.50
2022-10-14T23:52:29.408Z,16.20
2022-10-14T23:57:25.474Z,17.10
2022-10-14T23:59:54.102Z,15.70
